Time;durP1;ratioP1;P1;durP2;ratioP2;P2;SDS_P1;SDS_P2;PMS_P1;PMS_P2;Temp;Humidity;BMP_temperature;BMP_pressure;BME280_temperature;BME280_humidity;BME280_pressure;Samples;Min_cycle;Max_cycle;Signal;HPM_P1;HPM_P2
2023/07/22 00:00:16;;;;;;;15.55;5.50;;;16.60;88.20;;;;;;5118602;27;45458;-69
2023/07/22 00:02:43;;;;;;;17.15;5.20;;;16.50;89.10;;;;;;5101826;27;45325;-69
2023/07/22 00:05:10;;;;;;;15.38;5.75;;;16.50;89.10;;;;;;5104039;27;47484;-69
2023/07/22 00:07:37;;;;;;;18.80;5.50;;;16.50;89.50;;;;;;5100697;27;45139;-68
2023/07/22 00:10:05;;;;;;;15.13;5.35;;;16.50;89.60;;;;;;5101326;27;45334;-68
2023/07/22 00:12:33;;;;;;;16.50;6.65;;;16.50;89.70;;;;;;5100944;27;45227;-69
2023/07/22 00:15:00;;;;;;;12.88;5.30;;;16.50;89.80;;;;;;5100536;27;47067;-68
2023/07/22 00:17:26;;;;;;;16.45;6.20;;;16.50;89.60;;;;;;5100629;27;45186;-68
2023/07/22 00:19:53;;;;;;;16.95;5.35;;;16.50;90.10;;;;;;5098374;27;45305;-69
2023/07/22 00:22:22;;;;;;;15.85;5.53;;;16.60;90.00;;;;;;5093921;27;45248;-69
2023/07/22 00:24:48;;;;;;;10.20;5.07;;;16.60;89.90;;;;;;5101032;27;46403;-68
2023/07/22 00:27:15;;;;;;;12.18;4.97;;;16.60;90.00;;;;;;5101583;27;46282;-68
2023/07/22 00:29:43;;;;;;;8.77;5.00;;;16.60;90.00;;;;;;5108541;27;45257;-69
2023/07/22 00:32:10;;;;;;;9.00;5.00;;;16.60;90.00;;;;;;5103402;27;45339;-69
2023/07/22 00:34:37;;;;;;;11.15;5.25;;;16.60;89.60;;;;;;5101730;27;46319;-69
2023/07/22 00:37:04;;;;;;;13.23;5.85;;;16.60;89.70;;;;;;5101287;27;45369;-69
2023/07/22 00:39:31;;;;;;;14.32;5.07;;;16.70;89.00;;;;;;5103062;27;45128;-68
2023/07/22 00:41:58;;;;;;;8.45;5.50;;;16.60;89.80;;;;;;5101418;27;45108;-69
2023/07/22 00:44:25;;;;;;;14.35;5.15;;;16.60;89.70;;;;;;5102174;27;48259;-69
2023/07/22 00:46:55;;;;;;;12.57;5.25;;;16.60;89.00;;;;;;5101020;27;45286;-68
2023/07/22 00:49:22;;;;;;;11.98;5.32;;;16.60;90.10;;;;;;5097384;27;45151;-68
2023/07/22 00:51:49;;;;;;;9.90;4.88;;;16.50;89.50;;;;;;5100466;27;45342;-68
2023/07/22 00:54:16;;;;;;;8.15;4.82;;;16.50;88.70;;;;;;5100795;27;46502;-68
2023/07/22 00:56:45;;;;;;;7.78;5.03;;;16.50;88.90;;;;;;5102173;27;45981;-68
2023/07/22 00:59:11;;;;;;;9.48;5.03;;;16.60;88.00;;;;;;5111992;27;45195;-68
2023/07/22 01:01:38;;;;;;;11.38;5.75;;;16.50;87.90;;;;;;5122226;27;45348;-69
2023/07/22 01:04:08;;;;;;;9.70;4.80;;;16.50;88.00;;;;;;5119939;27;45248;-69
2023/07/22 01:06:36;;;;;;;8.07;4.65;;;16.50;88.00;;;;;;5117123;27;45256;-68
2023/07/22 01:09:03;;;;;;;9.07;4.35;;;16.40;87.90;;;;;;5122411;27;45260;-68
2023/07/22 01:11:30;;;;;;;10.80;4.72;;;16.40;87.50;;;;;;5107840;27;45396;-69
2023/07/22 01:13:59;;;;;;;11.98;4.60;;;16.50;87.20;;;;;;5105570;27;47158;-68
2023/07/22 01:16:27;;;;;;;9.57;4.78;;;16.50;87.10;;;;;;5123639;27;45217;-69
2023/07/22 01:18:55;;;;;;;7.78;4.70;;;16.50;87.70;;;;;;5099950;27;45180;-69
2023/07/22 01:21:24;;;;;;;7.15;4.60;;;16.60;87.30;;;;;;5105124;27;45283;-69
2023/07/22 01:23:53;;;;;;;10.18;5.35;;;16.50;87.90;;;;;;5100651;27;47754;-68
2023/07/22 01:26:20;;;;;;;6.80;4.20;;;16.50;88.00;;;;;;5095521;27;45359;-69
2023/07/22 01:28:47;;;;;;;10.43;4.68;;;16.50;87.40;;;;;;5097654;27;45233;-69
2023/07/22 01:31:14;;;;;;;13.10;4.72;;;16.60;87.40;;;;;;5105850;27;45367;-69
2023/07/22 01:33:41;;;;;;;8.23;4.38;;;16.60;87.20;;;;;;5099869;27;45275;-68
2023/07/22 01:36:08;;;;;;;10.25;4.63;;;16.60;88.20;;;;;;5105900;27;45246;-68
2023/07/22 01:38:35;;;;;;;7.40;4.72;;;16.60;88.00;;;;;;5105535;27;45213;-68
2023/07/22 01:41:03;;;;;;;7.22;4.07;;;16.60;87.50;;;;;;5103770;27;45199;-68
2023/07/22 01:43:30;;;;;;;10.52;4.78;;;16.60;87.30;;;;;;5105175;27;45418;-70
2023/07/22 01:45:57;;;;;;;10.23;4.65;;;16.50;87.80;;;;;;5106392;27;45262;-68
2023/07/22 01:48:24;;;;;;;10.48;4.60;;;16.40;88.10;;;;;;5104799;27;45300;-69
2023/07/22 01:50:51;;;;;;;9.05;4.75;;;16.30;88.50;;;;;;5103982;27;45298;-69
2023/07/22 01:53:18;;;;;;;9.05;5.00;;;16.30;88.20;;;;;;5104364;27;46503;-69
2023/07/22 01:55:45;;;;;;;11.75;4.70;;;16.30;87.80;;;;;;5104266;27;45275;-68
2023/07/22 01:58:13;;;;;;;7.72;4.45;;;16.30;88.40;;;;;;5105813;27;45325;-69
2023/07/22 02:00:40;;;;;;;10.30;4.97;;;16.30;87.80;;;;;;5113504;27;45425;-69
2023/07/22 02:03:07;;;;;;;10.13;5.05;;;16.30;87.90;;;;;;5111951;27;48344;-69
2023/07/22 02:05:34;;;;;;;10.55;4.80;;;16.20;88.10;;;;;;5114704;27;45641;-68
2023/07/22 02:08:01;;;;;;;7.20;4.30;;;16.20;88.50;;;;;;5116703;27;45204;-69
2023/07/22 02:10:28;;;;;;;9.77;4.50;;;16.20;88.30;;;;;;5113915;27;45235;-68
2023/07/22 02:12:54;;;;;;;8.18;4.47;;;16.30;88.30;;;;;;5111878;27;47322;-69
2023/07/22 02:15:24;;;;;;;8.57;4.43;;;16.30;87.80;;;;;;5105201;27;45171;-69
2023/07/22 02:17:51;;;;;;;10.30;4.18;;;16.40;87.30;;;;;;5109663;27;46180;-69
2023/07/22 02:20:18;;;;;;;8.07;4.32;;;16.50;87.80;;;;;;5103752;27;45343;-69
2023/07/22 02:22:44;;;;;;;10.95;4.78;;;16.40;86.20;;;;;;5103261;27;45246;-68
2023/07/22 02:25:11;;;;;;;9.32;5.00;;;16.30;87.50;;;;;;5103221;27;45169;-69
2023/07/22 02:27:39;;;;;;;11.52;4.55;;;16.30;88.20;;;;;;5097501;27;45336;-69
2023/07/22 02:30:10;;;;;;;7.07;4.63;;;16.20;87.80;;;;;;5102550;27;45329;-69
2023/07/22 02:32:38;;;;;;;9.43;4.70;;;16.20;87.50;;;;;;5103911;27;46191;-68
2023/07/22 02:35:06;;;;;;;7.20;4.38;;;16.20;87.50;;;;;;5099989;27;46302;-69
2023/07/22 02:37:33;;;;;;;6.97;4.28;;;16.20;87.80;;;;;;5103402;27;45174;-69
2023/07/22 02:40:00;;;;;;;7.38;4.60;;;16.20;87.80;;;;;;5103655;27;45103;-68
2023/07/22 02:42:27;;;;;;;10.15;4.80;;;16.10;87.50;;;;;;5099639;27;47879;-68
2023/07/22 02:44:54;;;;;;;9.20;4.65;;;16.10;88.30;;;;;;5103754;27;45430;-69
2023/07/22 02:47:20;;;;;;;8.35;4.95;;;16.10;88.50;;;;;;5103727;27;45407;-68
2023/07/22 02:49:49;;;;;;;5.93;4.50;;;16.10;88.10;;;;;;5105312;27;45062;-69
2023/07/22 02:52:16;;;;;;;7.07;4.25;;;16.20;87.00;;;;;;5103956;27;46499;-68
2023/07/22 02:54:43;;;;;;;10.50;4.68;;;16.10;88.00;;;;;;5101447;27;45277;-69
2023/07/22 02:57:10;;;;;;;10.18;4.13;;;16.00;88.10;;;;;;5101798;27;45228;-69
2023/07/22 02:59:37;;;;;;;6.95;4.50;;;15.90;88.40;;;;;;5105400;27;45168;-69
2023/07/22 03:02:04;;;;;;;10.10;4.93;;;16.00;87.80;;;;;;5105317;27;45245;-68
2023/07/22 03:04:31;;;;;;;7.93;4.47;;;15.90;89.10;;;;;;5113083;27;45267;-68
2023/07/22 03:07:00;;;;;;;11.73;5.18;;;15.90;88.20;;;;;;5103985;27;45171;-69
2023/07/22 03:09:26;;;;;;;10.07;5.10;;;15.90;87.80;;;;;;5125540;27;45261;-68
2023/07/22 03:11:53;;;;;;;8.13;4.60;;;15.90;88.00;;;;;;5107907;27;48503;-68
2023/07/22 03:14:22;;;;;;;9.93;4.50;;;15.80;88.10;;;;;;5107777;27;45099;-69
2023/07/22 03:16:48;;;;;;;9.57;4.13;;;15.80;88.60;;;;;;5114242;27;45318;-69
2023/07/22 03:19:15;;;;;;;10.80;4.35;;;15.70;88.20;;;;;;5104481;27;45392;-69
2023/07/22 03:21:42;;;;;;;9.80;4.53;;;15.70;88.50;;;;;;5108012;27;47321;-68
2023/07/22 03:24:10;;;;;;;8.73;4.55;;;15.70;89.20;;;;;;5112214;27;45275;-69
2023/07/22 03:26:37;;;;;;;8.25;4.28;;;15.70;89.80;;;;;;5110121;27;45328;-69
2023/07/22 03:29:04;;;;;;;13.00;4.90;;;15.70;90.10;;;;;;5113848;27;45101;-69
2023/07/22 03:31:31;;;;;;;12.32;4.50;;;15.70;89.80;;;;;;5111478;27;45418;-69
2023/07/22 03:33:59;;;;;;;8.63;4.43;;;15.70;89.90;;;;;;5112689;27;45242;-69
2023/07/22 03:36:26;;;;;;;9.77;4.60;;;15.60;90.00;;;;;;5104268;27;45186;-68
2023/07/22 03:38:53;;;;;;;6.32;4.18;;;15.70;89.80;;;;;;5100611;27;45403;-69
2023/07/22 03:41:21;;;;;;;11.30;4.20;;;15.80;90.10;;;;;;5102796;27;46359;-68
2023/07/22 03:43:48;;;;;;;9.13;4.47;;;15.80;89.70;;;;;;5103731;27;45265;-68
2023/07/22 03:46:15;;;;;;;7.55;5.03;;;15.80;90.00;;;;;;5103269;27;45268;-69
2023/07/22 03:48:41;;;;;;;11.80;4.72;;;15.80;89.90;;;;;;5101565;27;45224;-68
2023/07/22 03:51:08;;;;;;;11.82;4.35;;;15.80;89.70;;;;;;5102350;27;46355;-68
2023/07/22 03:53:35;;;;;;;8.80;4.85;;;15.90;89.20;;;;;;5106467;27;45127;-68
2023/07/22 03:56:02;;;;;;;10.02;4.70;;;15.80;89.80;;;;;;5103099;27;45174;-69
2023/07/22 03:58:30;;;;;;;7.47;4.30;;;15.90;89.60;;;;;;5102192;27;45213;-69
2023/07/22 04:00:57;;;;;;;12.48;4.47;;;15.80;89.70;;;;;;5100971;27;45258;-68
2023/07/22 04:03:23;;;;;;;10.30;4.28;;;15.80;89.60;;;;;;5095239;27;45317;-69
2023/07/22 04:05:55;;;;;;;8.20;4.43;;;15.80;90.00;;;;;;5110673;27;45117;-69
2023/07/22 04:08:22;;;;;;;9.80;4.53;;;15.90;89.90;;;;;;5104287;27;45424;-68
2023/07/22 04:10:53;;;;;;;9.10;4.70;;;15.90;89.60;;;;;;5112673;27;46484;-69
2023/07/22 04:13:20;;;;;;;8.35;4.32;;;15.90;89.80;;;;;;5110208;27;45105;-68
2023/07/22 04:15:48;;;;;;;7.85;4.57;;;15.90;89.60;;;;;;5116047;27;45337;-68
2023/07/22 04:18:16;;;;;;;8.48;4.70;;;15.90;90.00;;;;;;5119855;27;45186;-68
2023/07/22 04:20:42;;;;;;;12.45;4.10;;;16.00;89.60;;;;;;5112925;27;46992;-68
2023/07/22 04:23:09;;;;;;;10.82;4.20;;;16.00;89.30;;;;;;5113587;27;45203;-69
2023/07/22 04:25:40;;;;;;;9.57;4.35;;;16.00;89.80;;;;;;5112923;27;45311;-69
2023/07/22 04:28:07;;;;;;;7.57;4.55;;;16.10;88.90;;;;;;5113635;27;45140;-70
2023/07/22 04:30:34;;;;;;;11.02;4.30;;;16.10;89.10;;;;;;5116692;27;45134;-70
2023/07/22 04:33:02;;;;;;;9.70;4.45;;;16.10;89.90;;;;;;5118374;27;45117;-70
2023/07/22 04:35:32;;;;;;;7.47;4.15;;;16.10;89.40;;;;;;5108271;27;45178;-69
2023/07/22 04:37:58;;;;;;;10.32;4.50;;;16.20;90.00;;;;;;5107598;27;45444;-70
2023/07/22 04:40:25;;;;;;;7.75;4.45;;;16.20;89.20;;;;;;5104256;27;46841;-70
2023/07/22 04:42:52;;;;;;;8.90;4.40;;;16.20;89.90;;;;;;5109762;27;45695;-70
2023/07/22 04:45:19;;;;;;;7.57;4.18;;;16.30;89.90;;;;;;5107344;27;45223;-70
2023/07/22 04:47:48;;;;;;;7.30;4.25;;;16.30;89.50;;;;;;5101425;27;45466;-70
2023/07/22 04:50:16;;;;;;;7.90;4.53;;;16.40;88.90;;;;;;5101004;27;45160;-69
2023/07/22 04:52:44;;;;;;;8.82;4.25;;;16.40;89.40;;;;;;5102501;27;45277;-69
2023/07/22 04:55:11;;;;;;;9.45;3.97;;;16.50;88.50;;;;;;5103171;27;45158;-70
2023/07/22 04:57:40;;;;;;;8.40;4.13;;;16.40;88.30;;;;;;5102348;27;45263;-70
2023/07/22 05:00:11;;;;;;;8.18;4.75;;;16.50;88.70;;;;;;5100429;27;46479;-69
2023/07/22 05:02:38;;;;;;;8.63;4.05;;;16.50;89.80;;;;;;5102460;27;45349;-69
2023/07/22 05:05:06;;;;;;;8.10;3.95;;;16.70;89.30;;;;;;5102444;27;45247;-70
2023/07/22 05:07:34;;;;;;;8.13;4.25;;;16.70;88.90;;;;;;5101853;27;45325;-70
2023/07/22 05:10:01;;;;;;;5.90;4.07;;;16.80;88.70;;;;;;5100297;27;46371;-70
2023/07/22 05:12:28;;;;;;;10.10;4.60;;;16.70;88.50;;;;;;5099254;27;45410;-70
2023/07/22 05:14:54;;;;;;;9.52;4.40;;;16.60;89.30;;;;;;5098504;27;45208;-69
2023/07/22 05:17:21;;;;;;;8.38;4.03;;;16.60;88.50;;;;;;5100065;27;45418;-70
2023/07/22 05:19:49;;;;;;;9.85;3.80;;;16.60;89.10;;;;;;5099287;27;46354;-69
2023/07/22 05:22:16;;;;;;;9.65;3.85;;;16.60;88.90;;;;;;5100664;27;45170;-70
2023/07/22 05:24:44;;;;;;;14.55;4.43;;;16.60;89.70;;;;;;5098511;27;45252;-70
2023/07/22 05:27:11;;;;;;;7.18;4.38;;;16.60;89.60;;;;;;5101394;27;45314;-70
2023/07/22 05:29:38;;;;;;;5.05;3.83;;;16.70;89.00;;;;;;5100057;27;46235;-70
2023/07/22 05:32:06;;;;;;;8.30;3.85;;;16.80;88.70;;;;;;5101601;27;45382;-70
2023/07/22 05:34:32;;;;;;;7.22;4.18;;;16.80;89.00;;;;;;5104471;27;45275;-70
2023/07/22 05:36:59;;;;;;;9.23;4.20;;;16.90;89.50;;;;;;5100375;27;45161;-70
2023/07/22 05:39:26;;;;;;;6.80;3.95;;;16.90;88.70;;;;;;5092836;27;45443;-69
2023/07/22 05:41:55;;;;;;;6.82;3.80;;;16.90;89.90;;;;;;5096750;27;45176;-69
2023/07/22 05:44:22;;;;;;;6.68;3.72;;;16.90;89.40;;;;;;5102119;27;45246;-69
2023/07/22 05:46:49;;;;;;;7.78;4.22;;;17.00;89.90;;;;;;5104606;27;45263;-70
2023/07/22 05:49:15;;;;;;;8.73;4.70;;;17.00;89.00;;;;;;5101567;27;48017;-69
2023/07/22 05:51:42;;;;;;;7.35;3.60;;;17.10;88.60;;;;;;5098273;27;45305;-69
2023/07/22 05:54:09;;;;;;;8.80;4.10;;;17.00;87.90;;;;;;5094738;27;45385;-69
2023/07/22 05:56:36;;;;;;;7.30;4.03;;;17.10;88.60;;;;;;5100670;27;45391;-70
2023/07/22 05:59:04;;;;;;;8.60;3.88;;;17.10;88.20;;;;;;5100366;27;47466;-69
2023/07/22 06:01:31;;;;;;;6.35;4.35;;;17.20;87.10;;;;;;5096646;27;45672;-69
2023/07/22 06:03:58;;;;;;;7.15;4.38;;;16.90;88.50;;;;;;5100694;27;45301;-70
2023/07/22 06:06:25;;;;;;;8.32;4.72;;;17.00;87.80;;;;;;5097547;27;45342;-70
2023/07/22 06:08:51;;;;;;;8.38;4.05;;;17.10;87.70;;;;;;5096645;27;46049;-69
2023/07/22 06:11:18;;;;;;;6.93;4.22;;;17.20;87.30;;;;;;5101691;27;45119;-70
2023/07/22 06:13:45;;;;;;;8.30;3.85;;;17.40;86.10;;;;;;5104278;27;45183;-69
2023/07/22 06:16:13;;;;;;;6.22;3.60;;;17.40;86.10;;;;;;5102578;27;45250;-70
2023/07/22 06:18:40;;;;;;;11.63;3.80;;;17.50;86.30;;;;;;5104453;27;48578;-70
2023/07/22 06:21:06;;;;;;;10.98;3.88;;;17.70;85.10;;;;;;5098884;27;45372;-70
2023/07/22 06:23:33;;;;;;;9.57;4.32;;;17.80;84.30;;;;;;5108376;27;45245;-70
2023/07/22 06:26:00;;;;;;;9.02;4.22;;;18.00;83.40;;;;;;5103892;27;45092;-69
2023/07/22 06:28:27;;;;;;;10.25;4.65;;;18.20;83.70;;;;;;5103161;27;46286;-70
2023/07/22 06:30:54;;;;;;;9.55;4.22;;;18.40;81.40;;;;;;5100172;27;45193;-70
2023/07/22 06:33:22;;;;;;;5.55;3.80;;;18.20;84.20;;;;;;5105029;27;45291;-70
2023/07/22 06:35:49;;;;;;;9.53;5.03;;;18.50;81.50;;;;;;5102306;27;45459;-70
2023/07/22 06:38:15;;;;;;;8.18;4.50;;;18.50;81.00;;;;;;5094628;27;47253;-69
2023/07/22 06:40:42;;;;;;;7.53;4.40;;;18.50;81.50;;;;;;5101013;27;45127;-71
2023/07/22 06:43:09;;;;;;;13.30;4.88;;;18.60;81.90;;;;;;5101482;27;45150;-69
2023/07/22 06:45:36;;;;;;;10.35;5.38;;;18.60;80.00;;;;;;5099990;27;45080;-70
2023/07/22 06:48:03;;;;;;;8.60;4.50;;;18.40;81.50;;;;;;5100494;27;46313;-70
2023/07/22 06:50:31;;;;;;;8.60;4.40;;;18.50;83.00;;;;;;5101059;27;45148;-70
2023/07/22 06:52:58;;;;;;;10.88;4.70;;;18.60;82.90;;;;;;5103711;27;45108;-70
2023/07/22 06:55:25;;;;;;;14.40;5.05;;;18.70;81.70;;;;;;5096466;27;45169;-70
2023/07/22 06:57:52;;;;;;;10.68;3.83;;;19.10;80.00;;;;;;5104283;27;47436;-70
2023/07/22 07:00:19;;;;;;;10.13;5.07;;;19.10;80.20;;;;;;5104007;27;45106;-71
2023/07/22 07:02:45;;;;;;;13.02;4.60;;;19.20;77.70;;;;;;5104483;27;45187;-69
2023/07/22 07:05:12;;;;;;;10.27;4.20;;;19.10;78.70;;;;;;5103925;27;45315;-70
2023/07/22 07:07:41;;;;;;;14.23;4.72;;;19.10;80.30;;;;;;5103754;27;47282;-70
2023/07/22 07:10:08;;;;;;;8.75;4.10;;;19.00;79.20;;;;;;5104174;27;45879;-71
2023/07/22 07:12:35;;;;;;;6.35;3.92;;;19.20;81.80;;;;;;5103713;27;45362;-69
2023/07/22 07:15:02;;;;;;;11.77;4.55;;;19.10;79.20;;;;;;5107834;27;45203;-71
2023/07/22 07:17:29;;;;;;;10.85;4.50;;;19.50;77.80;;;;;;5102839;27;48169;-70
2023/07/22 07:19:55;;;;;;;8.38;4.93;;;19.50;77.50;;;;;;5104036;27;45197;-70
2023/07/22 07:22:22;;;;;;;14.38;5.78;;;19.50;77.80;;;;;;5104285;27;45369;-68
2023/07/22 07:24:50;;;;;;;15.18;5.88;;;19.20;78.60;;;;;;5105044;27;45062;-69
2023/07/22 07:27:17;;;;;;;13.90;5.07;;;18.10;83.20;;;;;;5103316;27;45152;-71
2023/07/22 07:29:44;;;;;;;6.28;4.32;;;18.70;81.80;;;;;;5104307;27;45304;-71
2023/07/22 07:32:11;;;;;;;8.52;5.25;;;19.20;80.60;;;;;;5104306;27;45284;-72
2023/07/22 07:34:37;;;;;;;18.10;4.65;;;19.60;76.80;;;;;;5105602;27;45070;-71
2023/07/22 07:37:05;;;;;;;9.95;4.30;;;19.50;77.80;;;;;;5103169;27;47240;-71
2023/07/22 07:39:32;;;;;;;10.02;4.70;;;19.70;76.30;;;;;;5095536;27;45069;-71
2023/07/22 07:42:00;;;;;;;9.38;4.95;;;19.80;76.60;;;;;;5103115;27;45185;-71
2023/07/22 07:44:27;;;;;;;11.18;5.05;;;19.70;77.30;;;;;;5104739;27;45293;-71
2023/07/22 07:46:54;;;;;;;10.15;4.65;;;19.50;79.20;;;;;;5103124;27;46523;-71
2023/07/22 07:49:20;;;;;;;8.80;4.63;;;19.50;78.50;;;;;;5103550;27;45195;-71
2023/07/22 07:51:47;;;;;;;16.10;5.93;;;19.70;76.30;;;;;;5102612;27;45229;-72
2023/07/22 07:54:14;;;;;;;9.63;4.72;;;19.50;76.80;;;;;;5102224;27;45398;-71
2023/07/22 07:56:41;;;;;;;13.13;5.40;;;19.60;78.90;;;;;;5098318;27;46410;-71
2023/07/22 07:59:09;;;;;;;11.07;4.22;;;19.80;78.10;;;;;;5103042;27;45235;-71
2023/07/22 08:01:41;;;;;;;13.23;4.85;;;19.70;78.00;;;;;;5099075;27;45286;-71
2023/07/22 08:04:08;;;;;;;9.90;4.57;;;19.80;78.60;;;;;;5104593;27;45081;-71
2023/07/22 08:06:35;;;;;;;10.05;5.05;;;20.30;76.30;;;;;;5106421;27;47737;-70
2023/07/22 08:09:02;;;;;;;10.43;4.97;;;19.40;77.70;;;;;;5103745;27;46185;-70
2023/07/22 08:11:29;;;;;;;9.07;5.10;;;18.80;79.00;;;;;;5099060;27;45213;-70
2023/07/22 08:13:56;;;;;;;10.25;5.70;;;18.70;80.80;;;;;;5103951;27;45216;-70
2023/07/22 08:16:25;;;;;;;8.77;4.85;;;18.80;78.90;;;;;;5101236;27;47310;-70
2023/07/22 08:18:52;;;;;;;12.00;4.80;;;18.80;79.80;;;;;;5103832;27;45190;-70
2023/07/22 08:21:19;;;;;;;8.15;5.00;;;18.90;79.10;;;;;;5102243;27;45288;-71
2023/07/22 08:23:47;;;;;;;7.68;4.30;;;19.10;77.50;;;;;;5100810;27;45394;-70
2023/07/22 08:26:14;;;;;;;8.73;4.18;;;19.60;77.90;;;;;;5099322;27;45297;-69
2023/07/22 08:28:41;;;;;;;8.57;4.63;;;19.90;77.60;;;;;;5099328;27;45333;-70
2023/07/22 08:31:08;;;;;;;9.57;5.10;;;19.80;74.30;;;;;;5098484;27;45118;-69
2023/07/22 08:33:36;;;;;;;12.43;4.95;;;18.90;77.30;;;;;;5101754;27;45098;-70
2023/07/22 08:36:03;;;;;;;7.68;4.93;;;18.60;82.90;;;;;;5095232;27;46415;-70
2023/07/22 08:38:30;;;;;;;6.88;4.22;;;18.60;81.00;;;;;;5093959;27;45171;-69
2023/07/22 08:40:57;;;;;;;5.43;3.60;;;19.00;81.00;;;;;;5099336;27;45200;-70
2023/07/22 08:43:24;;;;;;;4.20;3.45;;;19.60;78.50;;;;;;5100180;27;45194;-70
2023/07/22 08:45:53;;;;;;;9.52;4.30;;;20.40;74.90;;;;;;5097759;27;46390;-69
2023/07/22 08:48:27;;;;;;;6.72;4.10;;;20.00;72.20;;;;;;5103120;27;45144;-72
2023/07/22 08:50:58;;;;;;;11.82;4.32;;;19.70;77.10;;;;;;5102513;27;45179;-71
2023/07/22 08:53:25;;;;;;;7.50;4.68;;;19.60;73.30;;;;;;5102834;27;45502;-70
2023/07/22 08:55:52;;;;;;;7.95;4.05;;;19.60;73.50;;;;;;5105245;27;47264;-71
2023/07/22 08:58:19;;;;;;;6.47;4.00;;;19.50;74.50;;;;;;5100509;27;45188;-70
2023/07/22 09:00:48;;;;;;;4.90;3.05;;;19.60;73.30;;;;;;5100348;27;45184;-70
2023/07/22 09:03:15;;;;;;;5.40;3.35;;;19.50;71.30;;;;;;5100964;27;45433;-70
2023/07/22 09:05:44;;;;;;;9.88;3.70;;;19.40;72.80;;;;;;5101444;27;46321;-71
2023/07/22 09:08:13;;;;;;;9.90;3.50;;;19.40;71.50;;;;;;5101363;27;45069;-70
2023/07/22 09:10:41;;;;;;;3.95;2.75;;;19.50;71.90;;;;;;5101849;27;45272;-70
2023/07/22 09:13:08;;;;;;;8.60;3.15;;;19.70;70.20;;;;;;5102456;27;45426;-70
2023/07/22 09:15:36;;;;;;;4.70;2.53;;;19.70;71.80;;;;;;5101471;27;45176;-71
2023/07/22 09:18:04;;;;;;;3.90;2.83;;;20.40;72.40;;;;;;5102799;27;45176;-71
2023/07/22 09:20:31;;;;;;;5.82;3.10;;;20.80;70.60;;;;;;5101918;27;45208;-71
2023/07/22 09:22:58;;;;;;;5.03;2.97;;;20.40;66.50;;;;;;5102760;27;45458;-70
2023/07/22 09:25:28;;;;;;;5.70;3.55;;;20.40;71.90;;;;;;5099663;27;45293;-70
2023/07/22 09:27:56;;;;;;;10.60;3.03;;;20.80;65.60;;;;;;5103057;27;46037;-71
2023/07/22 09:30:25;;;;;;;4.93;2.85;;;20.60;67.50;;;;;;5103684;27;45309;-71
2023/07/22 09:32:53;;;;;;;8.20;2.42;;;20.70;66.90;;;;;;5100421;27;45083;-71
2023/07/22 09:35:20;;;;;;;7.10;2.85;;;21.00;67.40;;;;;;5101223;27;47898;-71
2023/07/22 09:37:47;;;;;;;5.22;2.75;;;21.30;66.90;;;;;;5102951;27;45215;-71
2023/07/22 09:40:19;;;;;;;6.40;2.80;;;21.20;64.40;;;;;;5102363;27;45195;-70
2023/07/22 09:42:51;;;;;;;4.95;2.50;;;20.50;66.30;;;;;;5099430;27;45331;-72
2023/07/22 09:45:19;;;;;;;4.00;2.40;;;20.30;70.90;;;;;;5097558;27;47286;-72
2023/07/22 09:47:48;;;;;;;5.95;2.75;;;20.30;67.70;;;;;;5105782;27;45559;-72
2023/07/22 09:50:16;;;;;;;11.45;2.80;;;20.20;66.70;;;;;;5107058;27;45227;-71
2023/07/22 09:52:47;;;;;;;8.23;2.85;;;19.70;69.50;;;;;;5107193;27;45171;-71
2023/07/22 09:55:16;;;;;;;4.00;2.30;;;20.00;68.40;;;;;;5106026;27;48663;-71
2023/07/22 09:57:46;;;;;;;6.15;2.53;;;20.30;70.00;;;;;;5094840;27;45052;-71
2023/07/22 10:00:19;;;;;;;4.50;2.45;;;20.30;66.60;;;;;;5104061;27;45337;-70
2023/07/22 10:02:47;;;;;;;4.57;2.42;;;20.40;68.30;;;;;;5106159;27;45355;-73
2023/07/22 10:05:16;;;;;;;5.57;2.60;;;20.50;67.80;;;;;;5106644;27;45345;-72
2023/07/22 10:07:49;;;;;;;3.92;2.10;;;20.50;66.80;;;;;;5106691;27;45201;-71
2023/07/22 10:10:18;;;;;;;8.73;2.60;;;20.80;63.40;;;;;;5103641;27;45207;-71
2023/07/22 10:12:45;;;;;;;10.50;2.30;;;20.00;69.20;;;;;;5107032;27;45151;-71
2023/07/22 10:15:15;;;;;;;6.00;2.60;;;20.00;68.50;;;;;;5105944;27;46257;-71
2023/07/22 10:17:43;;;;;;;7.00;1.90;;;20.00;66.50;;;;;;5106010;27;45216;-71
2023/07/22 10:20:14;;;;;;;4.28;2.30;;;20.10;68.30;;;;;;5097953;27;45123;-71
2023/07/22 10:22:42;;;;;;;9.50;2.33;;;20.20;67.50;;;;;;5105865;27;45396;-71
2023/07/22 10:25:12;;;;;;;5.60;2.20;;;20.00;66.50;;;;;;5102706;27;45323;-71
2023/07/22 10:27:40;;;;;;;4.93;1.73;;;19.90;67.40;;;;;;5102016;27;45239;-72
2023/07/22 10:30:08;;;;;;;3.58;2.00;;;20.00;66.30;;;;;;5101036;27;45300;-70
2023/07/22 10:32:39;;;;;;;3.97;1.88;;;19.90;64.90;;;;;;5103978;27;45242;-70
2023/07/22 10:35:11;;;;;;;14.98;2.17;;;20.00;66.90;;;;;;5099672;27;45246;-73
2023/07/22 10:37:38;;;;;;;6.00;1.67;;;20.10;65.00;;;;;;5106311;27;45357;-71
2023/07/22 10:40:27;;;;;;;2.55;1.65;;;20.20;65.00;;;;;;5103200;27;45270;-70
2023/07/22 10:42:57;;;;;;;4.30;1.95;;;20.40;65.50;;;;;;5098305;27;45182;-72
2023/07/22 10:45:27;;;;;;;5.35;1.88;;;20.30;64.20;;;;;;5105815;27;46232;-70
2023/07/22 10:48:04;;;;;;;3.58;1.80;;;20.40;63.30;;;;;;5111707;27;45189;-71
2023/07/22 10:50:41;;;;;;;7.65;2.05;;;20.40;61.50;;;;;;5105218;27;45322;-71
2023/07/22 10:53:11;;;;;;;4.32;2.03;;;20.60;60.20;;;;;;5102089;27;45167;-71
2023/07/22 10:56:06;;;;;;;3.08;1.80;;;20.80;62.90;;;;;;5103953;27;46232;-71
2023/07/22 10:58:33;;;;;;;2.92;1.30;;;20.90;63.00;;;;;;5097796;27;45416;-71
2023/07/22 11:01:24;;;;;;;4.18;1.80;;;21.20;62.60;;;;;;5101545;27;45376;-71
2023/07/22 11:04:15;;;;;;;3.50;1.73;;;21.40;56.80;;;;;;5102973;27;45175;-71
2023/07/22 11:06:56;;;;;;;3.50;1.50;;;21.30;59.50;;;;;;5102314;27;47018;-71
2023/07/22 11:09:36;;;;;;;5.15;2.40;;;21.10;62.80;;;;;;5101298;27;45329;-71
2023/07/22 11:12:05;;;;;;;3.38;1.88;;;21.20;59.70;;;;;;5094634;27;45360;-71
2023/07/22 11:14:33;;;;;;;4.30;2.08;;;21.10;61.40;;;;;;5101261;27;45307;-68
2023/07/22 11:17:03;;;;;;;3.20;1.98;;;21.30;61.60;;;;;;5100564;27;47937;-68
2023/07/22 11:19:33;;;;;;;3.35;1.85;;;21.40;60.50;;;;;;5103440;27;45675;-71
2023/07/22 11:22:00;;;;;;;2.85;1.83;;;21.10;61.40;;;;;;5103923;27;45078;-72
2023/07/22 11:24:27;;;;;;;5.10;2.03;;;21.30;60.10;;;;;;5100486;27;45288;-71
2023/07/22 11:26:55;;;;;;;3.35;2.03;;;21.40;61.70;;;;;;5103426;27;46276;-68
2023/07/22 11:29:21;;;;;;;8.10;1.95;;;21.60;61.40;;;;;;5104078;27;45249;-62
2023/07/22 11:31:51;;;;;;;2.85;1.98;;;21.70;60.30;;;;;;5103712;27;45159;-74
2023/07/22 11:34:19;;;;;;;2.58;2.00;;;21.60;58.90;;;;;;5105263;27;45312;-75
2023/07/22 11:36:48;;;;;;;2.45;1.65;;;21.50;58.60;;;;;;5104822;27;46489;-74
2023/07/22 11:39:16;;;;;;;2.80;1.65;;;21.60;61.10;;;;;;5105308;27;45237;-75
2023/07/22 11:41:44;;;;;;;3.00;1.77;;;21.70;57.60;;;;;;5105037;27;45201;-75
2023/07/22 11:44:13;;;;;;;7.03;2.17;;;21.80;61.60;;;;;;5097451;27;45175;-74
2023/07/22 11:46:49;;;;;;;12.40;3.55;;;22.00;58.90;;;;;;5107619;27;46575;-74
2023/07/22 11:49:24;;;;;;;4.82;2.10;;;22.00;56.20;;;;;;5103599;27;45271;-74
2023/07/22 11:51:54;;;;;;;6.05;2.53;;;21.70;57.20;;;;;;5105986;27;45338;-74
2023/07/22 11:54:22;;;;;;;4.75;2.53;;;21.80;57.30;;;;;;5106721;27;45136;-75
2023/07/22 11:56:49;;;;;;;5.55;2.10;;;21.50;56.70;;;;;;5102704;27;46285;-74
2023/07/22 11:59:16;;;;;;;3.25;1.95;;;21.60;57.20;;;;;;5104928;27;45324;-75
2023/07/22 12:01:45;;;;;;;5.53;2.10;;;21.60;60.20;;;;;;5098862;27;45196;-75
2023/07/22 12:04:13;;;;;;;3.05;1.95;;;21.70;65.40;;;;;;5106206;27;45330;-74
2023/07/22 12:06:40;;;;;;;4.50;2.17;;;21.80;63.60;;;;;;5097538;27;46229;-73
2023/07/22 12:09:09;;;;;;;9.05;2.30;;;21.80;59.40;;;;;;5097232;27;45237;-74
2023/07/22 12:11:36;;;;;;;4.25;2.60;;;21.80;56.30;;;;;;5102073;27;45227;-74
2023/07/22 12:14:08;;;;;;;4.32;2.08;;;21.70;58.10;;;;;;5106067;27;45238;-75
2023/07/22 12:16:37;;;;;;;2.97;2.03;;;21.80;65.20;;;;;;5105145;27;46557;-74
2023/07/22 12:19:04;;;;;;;4.70;2.00;;;21.80;58.90;;;;;;5099545;27;45151;-74
2023/07/22 12:21:31;;;;;;;4.20;2.45;;;21.80;65.00;;;;;;5107589;27;45070;-74
2023/07/22 12:23:58;;;;;;;4.78;2.15;;;21.90;57.40;;;;;;5097978;27;45457;-74
2023/07/22 12:26:26;;;;;;;9.32;2.22;;;21.70;58.70;;;;;;5105984;27;45361;-75
2023/07/22 12:28:53;;;;;;;3.03;1.88;;;21.80;56.70;;;;;;5106310;27;45299;-74
2023/07/22 12:31:20;;;;;;;2.70;1.75;;;21.80;65.20;;;;;;5104367;27;45288;-74
2023/07/22 12:33:47;;;;;;;4.28;1.95;;;21.90;61.80;;;;;;5091873;27;45031;-74
2023/07/22 12:36:14;;;;;;;1.92;1.42;;;22.30;52.20;;;;;;5106388;27;46365;-74
2023/07/22 12:38:40;;;;;;;5.88;2.00;;;22.20;56.40;;;;;;5106537;27;45112;-74
2023/07/22 12:41:07;;;;;;;2.67;1.83;;;22.20;49.80;;;;;;5106356;27;45072;-74
2023/07/22 12:43:35;;;;;;;6.25;1.80;;;22.20;49.30;;;;;;5106655;27;45424;-74
2023/07/22 12:46:02;;;;;;;9.80;2.00;;;22.30;47.40;;;;;;5106006;27;46251;-74